Time;durP1;ratioP1;P1;durP2;ratioP2;P2;SDS_P1;SDS_P2;PMS_P1;PMS_P2;Temp;Humidity;BMP_temperature;BMP_pressure;BME280_temperature;BME280_humidity;BME280_pressure;Samples;Min_cycle;Max_cycle;Signal;HPM_P1;HPM_P2
2022/04/05 00:00:14;;;;;;;7.20;1.60;;;7.30;99.90;;;;;;5033957;28;20038;-83
2022/04/05 00:02:40;;;;;;;5.50;2.28;;;7.30;99.90;;;;;;5029689;28;20049;-83
2022/04/05 00:05:06;;;;;;;3.03;1.05;;;7.30;99.90;;;;;;5053829;28;20048;-83
2022/04/05 00:07:32;;;;;;;7.03;1.60;;;7.30;99.90;;;;;;5036843;28;20102;-83
2022/04/05 00:09:57;;;;;;;4.30;1.33;;;7.20;99.90;;;;;;5033662;28;20076;-83
2022/04/05 00:12:23;;;;;;;5.57;1.80;;;7.20;99.90;;;;;;5032980;28;20042;-83
2022/04/05 00:14:49;;;;;;;7.07;1.55;;;7.20;99.90;;;;;;5041355;28;20049;-83
2022/04/05 00:17:15;;;;;;;5.57;1.70;;;7.20;99.90;;;;;;5036772;28;20394;-83
2022/04/05 00:19:41;;;;;;;5.45;1.50;;;7.10;99.90;;;;;;5053988;28;20045;-83
2022/04/05 00:22:06;;;;;;;5.88;1.50;;;7.20;99.90;;;;;;5036676;28;20037;-83
2022/04/05 00:24:32;;;;;;;6.93;1.77;;;7.10;99.90;;;;;;5049154;28;20502;-84
2022/04/05 00:26:57;;;;;;;6.65;1.75;;;7.10;99.90;;;;;;5033478;28;20037;-83
2022/04/05 00:29:24;;;;;;;5.40;1.65;;;7.10;99.90;;;;;;5052720;28;20176;-83
2022/04/05 00:31:50;;;;;;;4.80;1.23;;;7.10;99.90;;;;;;5053115;28;20143;-83
2022/04/05 00:34:16;;;;;;;6.20;1.60;;;7.10;99.90;;;;;;5053200;28;20037;-83
2022/04/05 00:36:42;;;;;;;7.75;1.77;;;7.10;99.90;;;;;;5053270;28;20040;-83
2022/04/05 00:39:07;;;;;;;5.15;1.25;;;7.10;99.90;;;;;;5034128;28;20046;-83
2022/04/05 00:41:33;;;;;;;8.20;1.50;;;7.10;99.90;;;;;;5045818;28;20095;-83
2022/04/05 00:43:58;;;;;;;5.63;1.20;;;7.10;99.90;;;;;;5051852;28;20098;-83
2022/04/05 00:46:24;;;;;;;5.38;1.30;;;7.20;99.90;;;;;;5052068;28;20101;-83
2022/04/05 00:48:57;;;;;;;7.15;1.55;;;7.10;99.90;;;;;;5036109;28;20364;-83
2022/04/05 00:51:24;;;;;;;6.20;1.55;;;7.10;99.90;;;;;;5052166;28;20063;-83
2022/04/05 00:53:57;;;;;;;5.15;1.40;;;7.10;99.90;;;;;;5052844;28;20052;-83
2022/04/05 00:56:24;;;;;;;8.38;2.13;;;7.10;99.90;;;;;;5052945;28;20042;-83
2022/04/05 00:58:53;;;;;;;7.20;1.35;;;7.10;99.90;;;;;;5052749;28;20044;-83
2022/04/05 01:01:21;;;;;;;5.70;1.27;;;7.10;99.90;;;;;;5052262;28;20052;-83
2022/04/05 01:03:49;;;;;;;5.32;1.45;;;7.10;99.90;;;;;;5035691;28;20044;-83
2022/04/05 01:06:22;;;;;;;5.60;1.25;;;7.10;99.90;;;;;;5052561;28;20056;-83
2022/04/05 01:08:49;;;;;;;6.55;1.42;;;7.10;99.90;;;;;;5036141;28;20048;-84
2022/04/05 01:11:15;;;;;;;7.40;1.70;;;7.10;99.90;;;;;;5052609;28;20140;-83
2022/04/05 01:13:41;;;;;;;7.28;1.35;;;7.10;99.90;;;;;;5052750;28;20123;-83
2022/04/05 01:16:07;;;;;;;4.90;1.55;;;7.20;99.90;;;;;;5049891;28;20076;-83
2022/04/05 01:18:34;;;;;;;6.63;1.23;;;7.10;99.90;;;;;;5032719;28;20440;-83
2022/04/05 01:21:00;;;;;;;5.85;1.65;;;7.10;99.90;;;;;;5032408;28;20068;-83
2022/04/05 01:23:25;;;;;;;7.50;1.50;;;7.10;99.90;;;;;;5026438;28;20048;-83
2022/04/05 01:25:52;;;;;;;10.48;1.77;;;7.10;99.90;;;;;;5051277;28;20032;-83
2022/04/05 01:28:19;;;;;;;7.93;1.65;;;7.10;99.90;;;;;;5035470;28;20087;-83
2022/04/05 01:30:44;;;;;;;4.78;1.38;;;7.10;99.90;;;;;;5052329;28;20130;-83
2022/04/05 01:33:10;;;;;;;4.47;1.38;;;7.10;99.90;;;;;;5035267;28;20060;-83
2022/04/05 01:35:36;;;;;;;4.93;1.27;;;7.10;99.90;;;;;;5035194;28;20085;-83
2022/04/05 01:38:06;;;;;;;6.32;1.40;;;7.10;99.90;;;;;;5043870;28;20434;-83
2022/04/05 01:40:32;;;;;;;2.35;1.10;;;7.10;99.90;;;;;;5015635;28;20046;-83
2022/04/05 01:42:57;;;;;;;6.63;1.20;;;7.10;99.90;;;;;;5040122;28;20048;-83
2022/04/05 01:45:23;;;;;;;6.78;1.50;;;7.10;99.90;;;;;;5052419;28;20053;-83
2022/04/05 01:47:49;;;;;;;6.93;1.05;;;7.10;99.90;;;;;;5051555;28;20387;-83
2022/04/05 01:50:14;;;;;;;6.45;1.40;;;7.10;99.90;;;;;;5032839;28;20044;-84
2022/04/05 01:52:40;;;;;;;5.18;1.30;;;7.10;99.90;;;;;;5037720;28;20033;-83
2022/04/05 01:55:07;;;;;;;5.35;1.10;;;7.10;99.90;;;;;;5035153;28;20548;-83
2022/04/05 01:57:33;;;;;;;5.63;1.25;;;7.10;99.90;;;;;;5051776;28;20056;-83
2022/04/05 01:59:58;;;;;;;4.78;1.10;;;7.10;99.90;;;;;;5039952;28;20037;-83
2022/04/05 02:02:24;;;;;;;4.72;1.38;;;7.10;99.90;;;;;;5050113;28;20177;-83
2022/04/05 02:04:50;;;;;;;6.13;1.20;;;7.10;99.90;;;;;;5051761;28;20486;-83
2022/04/05 02:07:17;;;;;;;6.80;1.52;;;7.10;99.90;;;;;;5031047;28;20053;-83
2022/04/05 02:09:46;;;;;;;5.07;1.30;;;7.10;99.90;;;;;;5036073;28;20111;-83
2022/04/05 02:12:11;;;;;;;4.65;1.25;;;7.10;99.90;;;;;;5052061;28;20033;-83
2022/04/05 02:14:38;;;;;;;7.85;1.40;;;7.10;99.90;;;;;;5048568;28;20037;-83
2022/04/05 02:17:04;;;;;;;4.05;1.20;;;7.00;99.90;;;;;;5033659;28;20042;-83
2022/04/05 02:19:30;;;;;;;3.38;1.23;;;7.00;99.90;;;;;;5044846;28;20037;-83
2022/04/05 02:21:56;;;;;;;8.02;1.23;;;7.00;99.90;;;;;;5047913;28;20059;-83
2022/04/05 02:24:22;;;;;;;6.20;1.83;;;7.00;99.90;;;;;;5045070;28;20040;-83
2022/04/05 02:26:48;;;;;;;5.68;1.40;;;7.00;99.90;;;;;;5042349;28;20041;-83
2022/04/05 02:29:14;;;;;;;9.73;1.70;;;7.00;99.90;;;;;;5030816;28;20075;-83
2022/04/05 02:31:40;;;;;;;6.80;1.83;;;7.00;99.90;;;;;;5043308;28;20498;-83
2022/04/05 02:34:05;;;;;;;9.65;2.03;;;7.00;99.90;;;;;;5041869;28;20036;-83
2022/04/05 02:36:31;;;;;;;5.93;1.45;;;7.00;99.90;;;;;;5044016;28;20037;-83
2022/04/05 02:38:56;;;;;;;5.38;1.58;;;7.00;99.90;;;;;;5050294;28;20430;-83
2022/04/05 02:41:22;;;;;;;7.38;1.60;;;7.00;99.90;;;;;;5033674;28;20063;-83
2022/04/05 02:43:48;;;;;;;7.75;1.73;;;7.00;99.90;;;;;;5054661;28;20463;-83
2022/04/05 02:46:13;;;;;;;8.35;1.70;;;7.00;99.90;;;;;;5038771;28;20041;-83
2022/04/05 02:48:43;;;;;;;5.70;2.20;;;7.00;99.90;;;;;;5054570;28;20047;-83
2022/04/05 02:51:15;;;;;;;8.40;2.10;;;7.00;99.90;;;;;;5054134;28;20049;-83
2022/04/05 02:53:42;;;;;;;5.82;1.77;;;7.00;99.90;;;;;;5054506;28;20040;-83
2022/04/05 02:56:09;;;;;;;7.22;1.85;;;7.00;99.90;;;;;;5055007;28;20102;-82
2022/04/05 02:58:35;;;;;;;7.05;1.67;;;7.00;99.90;;;;;;5038153;28;20487;-83
2022/04/05 03:01:02;;;;;;;6.20;1.67;;;7.00;99.90;;;;;;5037995;28;20045;-83
2022/04/05 03:03:28;;;;;;;10.90;2.17;;;7.00;99.90;;;;;;5035208;28;20114;-83
2022/04/05 03:05:53;;;;;;;8.23;1.88;;;6.90;99.90;;;;;;5018043;28;20062;-83
2022/04/05 03:08:19;;;;;;;6.95;2.10;;;6.90;99.90;;;;;;5035234;28;20038;-83
2022/04/05 03:10:45;;;;;;;9.82;2.08;;;6.90;99.90;;;;;;5035068;28;20038;-83
2022/04/05 03:13:11;;;;;;;6.57;1.90;;;6.90;99.90;;;;;;5018060;28;20030;-83
2022/04/05 03:15:37;;;;;;;8.55;2.33;;;6.90;99.90;;;;;;5032358;28;20045;-83
2022/04/05 03:18:03;;;;;;;8.60;2.47;;;7.00;99.90;;;;;;5054165;28;20166;-83
2022/04/05 03:20:28;;;;;;;10.20;2.83;;;6.90;99.90;;;;;;5053676;28;20037;-83
2022/04/05 03:22:55;;;;;;;7.35;2.45;;;7.00;99.90;;;;;;5051399;28;20033;-83
2022/04/05 03:25:22;;;;;;;11.07;2.42;;;6.90;99.90;;;;;;5054811;28;20045;-83
2022/04/05 03:27:48;;;;;;;10.35;3.03;;;7.00;99.90;;;;;;5048248;28;20049;-83
2022/04/05 03:30:15;;;;;;;10.65;2.58;;;6.90;99.90;;;;;;5053363;28;20125;-84
2022/04/05 03:32:41;;;;;;;11.75;3.03;;;7.00;99.90;;;;;;5053343;28;20478;-83
2022/04/05 03:35:08;;;;;;;14.43;3.45;;;6.90;99.90;;;;;;5045285;28;20124;-84
2022/04/05 03:37:34;;;;;;;13.93;3.63;;;6.90;99.90;;;;;;5030494;28;20398;-83
2022/04/05 03:40:01;;;;;;;9.27;2.58;;;6.90;99.90;;;;;;5052986;28;20028;-83
2022/04/05 03:42:27;;;;;;;11.82;2.88;;;6.90;99.90;;;;;;5042151;28;20124;-83
2022/04/05 03:44:52;;;;;;;12.75;3.63;;;6.90;99.90;;;;;;5051012;28;20144;-84
2022/04/05 03:47:18;;;;;;;11.18;2.83;;;7.00;99.90;;;;;;5053270;28;20444;-83
2022/04/05 03:49:43;;;;;;;15.60;3.05;;;7.00;99.90;;;;;;5035586;28;20542;-83
2022/04/05 03:52:09;;;;;;;12.18;2.78;;;7.00;99.90;;;;;;5025458;28;20130;-83
2022/04/05 03:54:35;;;;;;;9.70;2.75;;;7.00;99.90;;;;;;5054185;28;20064;-83
2022/04/05 03:57:01;;;;;;;8.90;2.85;;;6.90;99.90;;;;;;5040158;28;20127;-83
2022/04/05 03:59:26;;;;;;;10.57;3.10;;;7.00;99.90;;;;;;5039036;28;20043;-83
2022/04/05 04:01:52;;;;;;;8.45;2.40;;;7.00;99.90;;;;;;5053938;28;20041;-83
2022/04/05 04:04:17;;;;;;;8.10;2.33;;;7.00;99.90;;;;;;5053270;28;20037;-83
2022/04/05 04:06:43;;;;;;;10.48;2.30;;;6.90;99.90;;;;;;5053314;28;20053;-83
2022/04/05 04:09:11;;;;;;;13.93;2.83;;;6.90;99.90;;;;;;5053584;28;20091;-83
2022/04/05 04:11:40;;;;;;;13.13;2.35;;;6.90;99.90;;;;;;5046599;28;20044;-83
2022/04/05 04:14:06;;;;;;;12.35;2.63;;;6.90;99.90;;;;;;5017080;28;20048;-83
2022/04/05 04:16:31;;;;;;;13.52;2.15;;;6.90;99.90;;;;;;5047856;28;20544;-83
2022/04/05 04:18:57;;;;;;;16.50;2.60;;;6.80;99.90;;;;;;5033721;28;20045;-83
2022/04/05 04:21:22;;;;;;;10.45;2.55;;;6.80;99.90;;;;;;5029813;28;20551;-83
2022/04/05 04:23:48;;;;;;;16.95;3.10;;;6.80;99.90;;;;;;5044913;28;20048;-83
2022/04/05 04:26:14;;;;;;;14.98;2.38;;;6.80;99.90;;;;;;5053669;28;20045;-83
2022/04/05 04:28:39;;;;;;;13.52;2.25;;;6.80;99.90;;;;;;5033255;28;20045;-83
2022/04/05 04:31:05;;;;;;;12.25;3.00;;;6.80;99.90;;;;;;5041903;28;20128;-83
2022/04/05 04:33:30;;;;;;;12.27;2.20;;;6.70;99.90;;;;;;5053316;28;20045;-83
2022/04/05 04:35:57;;;;;;;9.65;2.47;;;6.80;99.90;;;;;;5052974;28;20509;-83
2022/04/05 04:38:23;;;;;;;8.85;2.38;;;6.80;99.90;;;;;;5040218;28;20037;-83
2022/04/05 04:40:50;;;;;;;15.30;2.85;;;6.70;99.90;;;;;;5026550;28;20106;-83
2022/04/05 04:43:17;;;;;;;14.88;2.72;;;6.70;99.90;;;;;;5032193;28;20542;-83
2022/04/05 04:45:43;;;;;;;10.95;2.92;;;6.70;99.90;;;;;;5038136;28;20478;-83
2022/04/05 04:48:08;;;;;;;14.23;2.63;;;6.70;99.90;;;;;;5052856;28;20059;-83
2022/04/05 04:50:34;;;;;;;12.35;2.20;;;6.70;99.90;;;;;;5035765;28;20044;-83
2022/04/05 04:52:59;;;;;;;11.13;2.00;;;6.70;99.90;;;;;;5052723;28;20099;-83
2022/04/05 04:55:25;;;;;;;10.00;2.30;;;6.80;99.90;;;;;;5052646;28;20037;-83
2022/04/05 04:57:51;;;;;;;11.75;2.15;;;6.80;99.90;;;;;;5052431;28;20037;-83
2022/04/05 05:00:17;;;;;;;11.38;2.60;;;6.70;99.90;;;;;;5035036;28;20124;-83
2022/04/05 05:02:47;;;;;;;11.30;2.80;;;6.70;99.90;;;;;;5052703;28;20033;-83
2022/04/05 05:05:19;;;;;;;11.27;2.47;;;6.80;99.90;;;;;;5052444;28;20079;-83
2022/04/05 05:07:45;;;;;;;13.38;2.50;;;6.80;99.90;;;;;;5044568;28;20388;-83
2022/04/05 05:10:12;;;;;;;14.90;2.95;;;6.80;99.90;;;;;;5035935;28;20137;-83
2022/04/05 05:12:40;;;;;;;16.73;3.10;;;6.80;99.90;;;;;;5052872;28;20041;-83
2022/04/05 05:15:22;;;;;;;6.93;1.92;;;6.80;99.90;;;;;;5034749;28;20044;-83
2022/04/05 05:17:48;;;;;;;;;;;6.80;99.90;;;;;;5049966;28;20394;-84
2022/04/05 05:20:15;;;;;;;10.57;3.20;;;6.80;99.90;;;;;;5043957;28;19923;-84
2022/04/05 05:22:41;;;;;;;10.90;2.72;;;6.80;99.90;;;;;;5025597;28;20510;-84
2022/04/05 05:25:08;;;;;;;10.50;3.50;;;6.80;99.90;;;;;;5051416;28;20044;-83
2022/04/05 05:27:34;;;;;;;8.18;2.35;;;6.80;99.90;;;;;;5047055;28;20045;-83
2022/04/05 05:30:00;;;;;;;10.43;2.67;;;6.80;99.90;;;;;;5032064;28;20117;-84
2022/04/05 05:32:26;;;;;;;9.07;2.83;;;6.80;99.90;;;;;;5027858;28;20077;-83
2022/04/05 05:34:51;;;;;;;9.63;3.60;;;6.80;99.90;;;;;;5034955;28;20521;-83
2022/04/05 05:37:17;;;;;;;11.45;2.70;;;6.90;99.90;;;;;;5044320;28;20048;-84
2022/04/05 05:39:42;;;;;;;12.57;2.90;;;6.90;99.90;;;;;;5030314;28;20041;-83
2022/04/05 05:42:08;;;;;;;10.07;2.88;;;6.90;99.90;;;;;;5052428;28;20041;-83
2022/04/05 05:44:35;;;;;;;8.52;3.60;;;7.00;99.90;;;;;;5051792;28;20041;-83
2022/04/05 05:47:03;;;;;;;7.28;2.80;;;7.00;99.90;;;;;;5047807;28;20082;-83
2022/04/05 05:49:29;;;;;;;7.30;3.85;;;7.00;99.90;;;;;;5037000;28;20558;-87
2022/04/05 05:51:54;;;;;;;6.75;2.70;;;7.10;99.90;;;;;;5037541;28;20057;-87
2022/04/05 05:54:20;;;;;;;9.23;3.35;;;7.10;99.90;;;;;;5052041;28;20097;-87
2022/04/05 05:56:46;;;;;;;9.07;2.58;;;7.10;99.90;;;;;;5052020;28;20056;-87
2022/04/05 05:59:11;;;;;;;9.02;2.47;;;7.10;99.90;;;;;;5052434;28;20352;-87
2022/04/05 06:01:37;;;;;;;8.98;2.85;;;7.10;99.90;;;;;;5051503;28;20196;-85
2022/04/05 06:04:03;;;;;;;9.52;3.05;;;7.10;99.90;;;;;;5051147;28;20041;-87
2022/04/05 06:06:29;;;;;;;7.47;3.13;;;7.10;99.90;;;;;;5051011;28;20411;-87
2022/04/05 06:08:58;;;;;;;9.50;2.97;;;7.10;99.90;;;;;;5035234;28;20045;-87
2022/04/05 06:11:24;;;;;;;6.75;2.60;;;7.10;99.90;;;;;;5036682;28;20041;-87
2022/04/05 06:13:51;;;;;;;7.70;2.70;;;7.10;99.90;;;;;;5055832;28;20037;-88
2022/04/05 06:16:18;;;;;;;6.60;2.83;;;7.10;99.90;;;;;;5040780;28;20079;-86
2022/04/05 06:18:44;;;;;;;8.20;2.78;;;7.20;99.90;;;;;;5045134;28;20049;-81
2022/04/05 06:21:10;;;;;;;9.15;3.38;;;7.10;99.90;;;;;;5046080;28;20045;-81
2022/04/05 06:23:36;;;;;;;9.38;3.50;;;7.10;99.90;;;;;;5052982;28;20048;-81
2022/04/05 06:26:01;;;;;;;8.63;2.83;;;7.10;99.90;;;;;;5022272;28;20045;-81
2022/04/05 06:28:27;;;;;;;6.72;2.40;;;7.20;99.90;;;;;;5045403;28;20767;-81
2022/04/05 06:30:52;;;;;;;10.38;2.92;;;7.20;99.90;;;;;;5047678;28;20041;-81
2022/04/05 06:33:22;;;;;;;7.85;2.45;;;7.20;99.90;;;;;;5051872;28;20485;-81
2022/04/05 06:35:58;;;;;;;6.57;2.28;;;7.20;99.90;;;;;;5037609;28;20037;-82
2022/04/05 06:38:25;;;;;;;9.95;3.17;;;7.30;99.90;;;;;;5045145;28;20506;-81
2022/04/05 06:40:54;;;;;;;4.53;2.17;;;7.30;99.90;;;;;;5051287;28;20660;-81
2022/04/05 06:43:20;;;;;;;5.78;2.15;;;7.30;99.90;;;;;;5027763;28;20079;-81
2022/04/05 06:45:46;;;;;;;7.65;2.72;;;7.40;99.90;;;;;;5042150;28;20132;-81
2022/04/05 06:48:12;;;;;;;5.55;2.38;;;7.50;99.90;;;;;;5051490;28;20455;-81
2022/04/05 06:50:38;;;;;;;6.03;2.78;;;7.50;99.90;;;;;;5040937;28;20116;-82
2022/04/05 06:53:05;;;;;;;10.15;2.67;;;7.70;99.90;;;;;;5046070;28;20129;-82
2022/04/05 06:55:30;;;;;;;5.00;2.05;;;7.70;99.90;;;;;;5052350;28;20072;-81
2022/04/05 06:57:56;;;;;;;5.45;2.15;;;7.80;99.90;;;;;;5049038;28;20491;-81
2022/04/05 07:00:23;;;;;;;4.88;2.00;;;7.80;99.90;;;;;;5032402;28;20045;-82
2022/04/05 07:02:53;;;;;;;6.00;2.20;;;7.90;99.90;;;;;;5044467;28;20517;-81
2022/04/05 07:05:20;;;;;;;4.28;1.80;;;8.00;99.90;;;;;;5049907;28;20079;-81
2022/04/05 07:07:46;;;;;;;5.05;1.90;;;8.10;99.90;;;;;;5051582;28;20706;-81
2022/04/05 07:10:14;;;;;;;3.83;1.70;;;8.20;99.90;;;;;;5051283;28;20646;-81
2022/04/05 07:12:41;;;;;;;6.47;2.10;;;8.30;99.90;;;;;;5032081;28;20033;-81
2022/04/05 07:15:09;;;;;;;10.82;2.50;;;8.40;99.90;;;;;;5050514;28;20083;-81
2022/04/05 07:17:34;;;;;;;7.15;2.03;;;8.50;99.90;;;;;;5050735;28;20084;-80
2022/04/05 07:20:00;;;;;;;6.90;1.73;;;8.50;99.90;;;;;;5052618;28;20076;-80
2022/04/05 07:22:26;;;;;;;6.50;2.38;;;8.60;99.90;;;;;;5031149;28;20033;-80
2022/04/05 07:24:52;;;;;;;4.93;1.80;;;8.60;99.90;;;;;;5050086;28;20483;-80
2022/04/05 07:27:18;;;;;;;5.55;1.90;;;8.60;99.90;;;;;;5042719;28;20032;-80
2022/04/05 07:29:43;;;;;;;3.65;1.60;;;8.60;99.90;;;;;;5047551;28;20537;-80
2022/04/05 07:32:09;;;;;;;7.10;1.90;;;8.60;99.90;;;;;;5051981;28;20048;-80
2022/04/05 07:34:35;;;;;;;9.00;1.98;;;8.70;99.90;;;;;;5051985;28;20048;-80
2022/04/05 07:37:01;;;;;;;8.10;2.47;;;8.70;99.90;;;;;;5052233;28;20040;-80
2022/04/05 07:39:26;;;;;;;6.72;1.92;;;8.60;99.90;;;;;;5047142;28;20068;-80
2022/04/05 07:41:52;;;;;;;7.85;2.80;;;8.70;99.90;;;;;;5034417;28;20041;-80
2022/04/05 07:44:18;;;;;;;4.75;2.10;;;8.60;99.90;;;;;;5051442;28;20041;-80
2022/04/05 07:46:44;;;;;;;9.32;2.60;;;8.60;99.90;;;;;;5043280;28;20488;-80
2022/04/05 07:49:10;;;;;;;5.47;1.90;;;8.60;99.90;;;;;;5048698;28;20083;-80
2022/04/05 07:51:36;;;;;;;7.85;2.00;;;8.60;99.90;;;;;;5035703;28;20053;-80
2022/04/05 07:54:03;;;;;;;5.43;2.30;;;8.60;99.90;;;;;;5049162;28;20656;-80
2022/04/05 07:56:29;;;;;;;5.82;2.30;;;8.60;99.90;;;;;;5044433;28;20034;-80
2022/04/05 07:58:54;;;;;;;4.25;1.80;;;8.50;99.90;;;;;;5030204;28;20075;-81
2022/04/05 08:01:20;;;;;;;5.35;2.20;;;8.50;99.90;;;;;;5047851;28;20563;-80
2022/04/05 08:03:46;;;;;;;5.72;2.15;;;8.60;99.90;;;;;;5032871;28;20032;-80
2022/04/05 08:06:11;;;;;;;4.60;2.00;;;8.60;99.90;;;;;;5050952;28;20497;-80
2022/04/05 08:08:37;;;;;;;5.82;1.80;;;8.50;99.90;;;;;;5049933;28;20438;-80
2022/04/05 08:11:03;;;;;;;3.63;1.77;;;8.60;99.90;;;;;;5033008;28;20072;-80
2022/04/05 08:13:28;;;;;;;6.22;2.30;;;8.60;99.90;;;;;;5043576;28;20037;-80
2022/04/05 08:15:54;;;;;;;5.50;1.95;;;8.60;99.90;;;;;;5033029;28;20090;-80
2022/04/05 08:18:21;;;;;;;6.00;2.35;;;8.60;99.90;;;;;;5049869;28;20044;-80
2022/04/05 08:20:46;;;;;;;6.30;2.63;;;8.70;99.90;;;;;;5051393;28;20471;-80
2022/04/05 08:23:12;;;;;;;6.70;1.95;;;8.60;99.90;;;;;;5033485;28;20051;-80
2022/04/05 08:25:38;;;;;;;6.68;2.03;;;8.70;99.90;;;;;;5051310;28;20103;-80
2022/04/05 08:28:04;;;;;;;4.47;1.90;;;8.70;99.90;;;;;;5050852;28;20068;-80
2022/04/05 08:30:30;;;;;;;4.95;2.00;;;8.80;99.90;;;;;;5033868;28;20035;-80
2022/04/05 08:32:57;;;;;;;6.85;1.77;;;8.80;99.90;;;;;;5039667;28;20048;-79
2022/04/05 08:35:23;;;;;;;4.28;1.70;;;8.90;99.90;;;;;;5014480;28;20068;-79
2022/04/05 08:37:52;;;;;;;6.43;1.67;;;8.90;99.90;;;;;;5032435;28;20066;-80
2022/04/05 08:40:20;;;;;;;3.92;1.90;;;8.90;99.90;;;;;;5031340;28;20519;-80
2022/04/05 08:42:49;;;;;;;4.40;1.90;;;9.00;99.90;;;;;;5043134;28;20071;-80
2022/04/05 08:45:16;;;;;;;5.57;1.58;;;8.90;99.90;;;;;;5051121;28;20084;-80
2022/04/05 08:47:48;;;;;;;5.40;1.83;;;9.00;99.90;;;;;;5050042;28;20073;-80
2022/04/05 08:50:22;;;;;;;6.28;1.60;;;9.00;99.90;;;;;;5051073;28;20504;-80
2022/04/05 08:52:49;;;;;;;3.60;1.35;;;9.10;99.90;;;;;;5031821;28;20033;-80
2022/04/05 08:55:16;;;;;;;4.65;1.55;;;9.20;99.90;;;;;;5050464;28;20037;-80
2022/04/05 08:57:42;;;;;;;4.68;1.73;;;9.30;99.90;;;;;;5048864;28;20032;-80
2022/04/05 09:00:10;;;;;;;5.72;1.85;;;9.40;99.90;;;;;;5049434;28;20092;-85
2022/04/05 09:02:36;;;;;;;6.45;1.60;;;9.70;99.90;;;;;;5035915;28;20048;-85
2022/04/05 09:05:02;;;;;;;4.38;1.50;;;10.00;99.90;;;;;;5048393;28;20049;-85
2022/04/05 09:07:33;;;;;;;4.13;1.23;;;10.20;99.90;;;;;;5017231;28;20449;-85
2022/04/05 09:10:09;;;;;;;4.35;1.40;;;10.30;99.90;;;;;;5032775;28;20140;-85
2022/04/05 09:12:46;;;;;;;3.55;1.20;;;10.40;99.90;;;;;;5032638;28;20102;-85
2022/04/05 09:15:21;;;;;;;4.43;1.60;;;10.30;99.90;;;;;;5032514;28;20041;-85
2022/04/05 09:17:48;;;;;;;4.60;1.40;;;10.20;99.90;;;;;;5032534;28;20056;-85
2022/04/05 09:20:17;;;;;;;3.80;1.10;;;10.20;99.90;;;;;;5032510;28;20038;-85
2022/04/05 09:22:42;;;;;;;5.22;1.20;;;10.10;99.90;;;;;;5019722;28;20041;-85
2022/04/05 09:25:11;;;;;;;3.38;1.67;;;10.20;99.90;;;;;;5032347;28;20151;-85
2022/04/05 09:27:54;;;;;;;4.60;1.30;;;10.20;99.90;;;;;;5032742;28;20049;-85
2022/04/05 09:30:29;;;;;;;4.13;1.35;;;10.20;99.90;;;;;;5032350;28;20095;-85
2022/04/05 09:32:59;;;;;;;5.55;2.22;;;10.30;99.90;;;;;;5032338;28;20038;-85
2022/04/05 09:35:30;;;;;;;3.13;1.48;;;10.40;99.90;;;;;;5032341;28;20209;-85
2022/04/05 09:38:14;;;;;;;3.00;1.20;;;10.30;99.90;;;;;;5032094;28;20044;-85
2022/04/05 09:40:41;;;;;;;3.28;1.40;;;10.40;99.90;;;;;;5032604;28;20490;-85
2022/04/05 09:43:12;;;;;;;1.88;1.10;;;10.40;99.90;;;;;;5015820;28;20472;-85
2022/04/05 09:46:07;;;;;;;3.22;1.20;;;10.40;99.90;;;;;;5032416;28;20041;-85
2022/04/05 09:48:36;;;;;;;2.40;1.10;;;10.40;99.90;;;;;;5015488;28;20054;-85
2022/04/05 09:51:14;;;;;;;4.03;1.40;;;10.30;99.90;;;;;;5036432;28;20490;-85
2022/04/05 09:53:50;;;;;;;2.63;1.20;;;10.30;99.90;;;;;;5036211;28;20071;-85
2022/04/05 09:56:20;;;;;;;3.28;1.30;;;10.40;99.90;;;;;;5047710;28;20033;-86
2022/04/05 09:59:04;;;;;;;3.63;1.70;;;10.40;99.90;;;;;;5039517;28;20048;-84
2022/04/05 10:01:33;;;;;;;1.92;1.20;;;10.30;99.90;;;;;;5039366;28;20037;-84
2022/04/05 10:04:11;;;;;;;5.60;1.23;;;10.30;99.90;;;;;;5055871;28;20056;-85
2022/04/05 10:06:39;;;;;;;2.40;1.27;;;10.30;99.90;;;;;;5055851;28;20061;-84
2022/04/05 10:09:06;;;;;;;1.75;1.00;;;10.30;99.90;;;;;;5055804;28;20080;-84
2022/04/05 10:11:34;;;;;;;2.67;1.10;;;10.30;99.90;;;;;;5056150;28;20498;-84
2022/04/05 10:14:00;;;;;;;4.35;1.20;;;10.20;99.90;;;;;;5041201;28;20045;-84
2022/04/05 10:16:27;;;;;;;4.97;1.40;;;10.20;99.90;;;;;;5035856;28;20037;-84
2022/04/05 10:18:57;;;;;;;3.10;1.20;;;10.20;99.90;;;;;;5035598;28;20046;-84
2022/04/05 10:21:27;;;;;;;1.98;1.38;;;10.40;99.90;;;;;;5035981;28;20793;-84
2022/04/05 10:23:55;;;;;;;2.65;1.40;;;10.40;99.90;;;;;;5019302;28;20049;-84
2022/04/05 10:26:24;;;;;;;3.53;1.45;;;10.50;99.90;;;;;;5035719;28;20091;-84
2022/04/05 10:28:52;;;;;;;4.00;2.00;;;10.50;99.90;;;;;;5019531;28;20048;-84
2022/04/05 10:31:22;;;;;;;2.63;1.23;;;10.50;99.90;;;;;;5019283;28;20052;-84
2022/04/05 10:34:14;;;;;;;2.67;1.63;;;10.50;99.90;;;;;;5035585;28;20076;-85
2022/04/05 10:36:41;;;;;;;2.67;1.20;;;10.50;99.90;;;;;;5031167;28;20041;-83
2022/04/05 10:39:22;;;;;;;2.95;1.13;;;10.60;99.90;;;;;;5055720;28;20056;-84
2022/04/05 10:42:06;;;;;;;1.08;0.98;;;10.70;99.90;;;;;;5038137;28;20075;-84
2022/04/05 10:44:32;;;;;;;2.47;1.33;;;10.70;99.90;;;;;;5054751;28;20493;-84
2022/04/05 10:47:01;;;;;;;2.55;1.60;;;10.80;99.90;;;;;;5054830;28;20041;-83
2022/04/05 10:49:47;;;;;;;1.08;0.80;;;10.90;99.90;;;;;;5054750;28;20041;-84
2022/04/05 10:52:15;;;;;;;0.90;0.80;;;11.20;99.90;;;;;;5037065;28;20029;-84
2022/04/05 10:54:47;;;;;;;1.17;0.93;;;11.30;99.90;;;;;;5018381;28;20083;-84
2022/04/05 10:57:46;;;;;;;3.67;1.00;;;11.40;99.90;;;;;;5034431;28;20041;-84
2022/04/05 11:00:18;;;;;;;1.30;0.82;;;11.40;99.90;;;;;;5035572;28;20057;-84
2022/04/05 11:02:47;;;;;;;1.35;0.98;;;11.50;99.90;;;;;;5035425;28;20391;-84
2022/04/05 11:05:13;;;;;;;1.10;0.80;;;11.50;99.90;;;;;;5018254;28;20049;-84
2022/04/05 11:07:51;;;;;;;1.52;0.93;;;11.50;99.90;;;;;;5018345;28;20064;-84
2022/04/05 11:10:19;;;;;;;0.60;0.60;;;11.50;99.90;;;;;;5052997;28;20048;-83
2022/04/05 11:12:45;;;;;;;0.70;0.70;;;11.40;99.90;;;;;;5054855;28;20060;-83
2022/04/05 11:15:14;;;;;;;0.73;0.60;;;11.50;99.90;;;;;;5054806;28;20069;-84
2022/04/05 11:17:41;;;;;;;0.70;0.70;;;11.50;99.90;;;;;;5054505;28;20051;-83
2022/04/05 11:20:08;;;;;;;2.15;0.90;;;11.50;99.90;;;;;;5054650;28;20037;-83
2022/04/05 11:22:38;;;;;;;0.73;0.70;;;11.30;99.90;;;;;;5041953;22;20061;-81
2022/04/05 11:25:06;;;;;;;0.98;0.88;;;11.40;99.90;;;;;;5027938;28;20044;-81
2022/04/05 11:27:45;;;;;;;1.42;0.70;;;11.50;99.90;;;;;;5011966;28;20046;-80
2022/04/05 11:30:25;;;;;;;1.15;0.70;;;11.50;99.90;;;;;;5031785;28;20116;-80
2022/04/05 11:33:09;;;;;;;0.88;0.77;;;11.60;99.90;;;;;;5017399;28;20037;-81
2022/04/05 11:35:36;;;;;;;1.17;1.08;;;11.90;99.90;;;;;;5032599;28;20091;-80
2022/04/05 11:38:02;;;;;;;1.10;1.00;;;11.90;99.90;;;;;;5033065;28;20113;-81
2022/04/05 11:40:30;;;;;;;0.90;0.90;;;12.00;99.90;;;;;;5034953;28;20041;-81
2022/04/05 11:43:01;;;;;;;1.20;1.10;;;11.90;99.90;;;;;;5033178;28;20045;-81
2022/04/05 11:45:29;;;;;;;0.85;0.85;;;11.80;99.90;;;;;;5016485;28;20043;-81
2022/04/05 11:47:55;;;;;;;1.27;1.17;;;11.60;99.90;;;;;;5027760;28;20132;-81
2022/04/05 11:50:22;;;;;;;1.10;1.10;;;11.50;99.90;;;;;;5027200;28;20418;-81
2022/04/05 11:52:48;;;;;;;1.27;1.17;;;11.40;99.90;;;;;;5037439;28;20073;-81
2022/04/05 11:58:02;;;;;;;1.08;0.98;;;11.20;99.90;;;;;;5046838;28;20057;-80
2022/04/05 12:00:27;;;;;;;1.48;1.25;;;11.10;99.90;;;;;;5043364;28;20037;-81
2022/04/05 12:03:05;;;;;;;1.25;1.15;;;11.00;99.90;;;;;;5030888;28;20033;-80
2022/04/05 12:05:44;;;;;;;1.52;1.35;;;11.00;99.90;;;;;;5029793;28;20475;-79
2022/04/05 12:08:13;;;;;;;1.73;1.63;;;11.00;99.90;;;;;;5029714;28;20041;-79
2022/04/05 12:10:41;;;;;;;2.47;1.48;;;11.00;99.90;;;;;;5029193;28;20048;-80
2022/04/05 12:13:07;;;;;;;2.35;1.63;;;11.20;99.90;;;;;;5029402;28;20041;-79
2022/04/05 12:15:34;;;;;;;1.40;1.30;;;11.30;99.90;;;;;;5000739;28;20034;-79
2022/04/05 12:18:20;;;;;;;1.42;1.20;;;11.30;99.90;;;;;;5011851;28;20115;-80
2022/04/05 12:21:08;;;;;;;1.30;1.20;;;11.30;99.90;;;;;;5014395;28;20143;-79
2022/04/05 12:23:39;;;;;;;1.52;1.42;;;11.40;99.90;;;;;;5025571;28;20099;-80
2022/04/05 12:26:05;;;;;;;1.77;1.67;;;11.60;99.90;;;;;;5037161;28;20044;-80
2022/04/05 12:28:32;;;;;;;1.73;1.63;;;11.60;99.90;;;;;;5030281;28;20045;-80
2022/04/05 12:31:08;;;;;;;2.05;1.90;;;11.70;99.90;;;;;;5030650;28;20052;-80
2022/04/05 12:33:34;;;;;;;2.08;1.98;;;11.70;99.90;;;;;;5014790;28;20052;-80
2022/04/05 12:36:00;;;;;;;1.98;1.88;;;11.60;99.90;;;;;;5037891;28;20068;-79
2022/04/05 12:38:26;;;;;;;2.00;1.80;;;11.70;99.90;;;;;;5027989;28;20069;-80
2022/04/05 12:40:52;;;;;;;2.45;2.20;;;11.80;99.90;;;;;;5029121;28;20057;-81
2022/04/05 12:43:22;;;;;;;2.15;2.00;;;11.80;99.90;;;;;;5029979;28;20602;-80
2022/04/05 12:45:49;;;;;;;2.55;2.33;;;11.80;99.90;;;;;;5013302;28;20386;-80
2022/04/05 12:48:17;;;;;;;3.83;2.42;;;11.70;99.90;;;;;;5018968;28;20041;-81
2022/04/05 12:50:45;;;;;;;2.90;2.70;;;11.90;99.90;;;;;;5034128;28;20064;-80
2022/04/05 12:53:13;;;;;;;2.55;2.35;;;12.00;99.90;;;;;;5033407;28;20089;-80
2022/04/05 12:55:39;;;;;;;3.78;3.35;;;12.00;99.90;;;;;;5033749;28;20120;-80
2022/04/05 12:58:07;;;;;;;3.50;3.05;;;11.90;99.90;;;;;;5032542;28;20108;-80